sensor_id;sensor_type;location;lat;lon;timestamp;pressure;altitude;pressure_sealevel;temperature;humidity
71974;BME280;59840;52.122;5.404;2022-12-24T00:00:02;100638.03;;;9.38;99.27
71974;BME280;59840;52.122;5.404;2022-12-24T00:02:29;100647.75;;;9.38;99.03
71974;BME280;59840;52.122;5.404;2022-12-24T00:04:55;100640.09;;;9.36;99.38
71974;BME280;59840;52.122;5.404;2022-12-24T00:07:27;100645.38;;;9.36;99.78
71974;BME280;59840;52.122;5.404;2022-12-24T00:09:53;100652.22;;;9.37;99.00
71974;BME280;59840;52.122;5.404;2022-12-24T00:12:20;100650.41;;;9.38;99.28
71974;BME280;59840;52.122;5.404;2022-12-24T00:14:46;100661.97;;;9.37;99.50
71974;BME280;59840;52.122;5.404;2022-12-24T00:17:13;100666.44;;;9.36;99.50
71974;BME280;59840;52.122;5.404;2022-12-24T00:19:39;100670.91;;;9.36;98.85
71974;BME280;59840;52.122;5.404;2022-12-24T00:22:06;100667.22;;;9.37;99.31
71974;BME280;59840;52.122;5.404;2022-12-24T00:24:32;100666.44;;;9.36;99.08
71974;BME280;59840;52.122;5.404;2022-12-24T00:26:59;100673.31;;;9.37;99.04
71974;BME280;59840;52.122;5.404;2022-12-24T00:29:25;100670.13;;;9.35;98.93
71974;BME280;59840;52.122;5.404;2022-12-24T00:31:52;100677.47;;;9.33;98.88
71974;BME280;59840;52.122;5.404;2022-12-24T00:34:18;100677.47;;;9.33;99.00
71974;BME280;59840;52.122;5.404;2022-12-24T00:36:45;100689.28;;;9.31;99.06
71974;BME280;59840;52.122;5.404;2022-12-24T00:39:12;100687.91;;;9.28;98.96
71974;BME280;59840;52.122;5.404;2022-12-24T00:41:38;100693.44;;;9.27;99.23
71974;BME280;59840;52.122;5.404;2022-12-24T00:44:06;100691.81;;;9.26;98.44
71974;BME280;59840;52.122;5.404;2022-12-24T00:46:39;100707.63;;;9.26;98.98
71974;BME280;59840;52.122;5.404;2022-12-24T00:49:06;100697.34;;;9.24;98.65
71974;BME280;59840;52.122;5.404;2022-12-24T00:51:34;100708.91;;;9.23;98.36
71974;BME280;59840;52.122;5.404;2022-12-24T00:54:02;100713.59;;;9.21;98.18
71974;BME280;59840;52.122;5.404;2022-12-24T00:56:28;100722.53;;;9.20;97.85
71974;BME280;59840;52.122;5.404;2022-12-24T00:58:55;100729.63;;;9.20;98.73
71974;BME280;59840;52.122;5.404;2022-12-24T01:01:23;100728.03;;;9.19;98.32
71974;BME280;59840;52.122;5.404;2022-12-24T01:03:50;100728.84;;;9.19;98.16
71974;BME280;59840;52.122;5.404;2022-12-24T01:06:19;100736.16;;;9.17;98.04
71974;BME280;59840;52.122;5.404;2022-12-24T01:08:50;100739.84;;;9.16;97.97
71974;BME280;59840;52.122;5.404;2022-12-24T01:11:17;100750.59;;;9.15;98.71
71974;BME280;59840;52.122;5.404;2022-12-24T01:13:44;100754.50;;;9.12;98.21
71974;BME280;59840;52.122;5.404;2022-12-24T01:16:16;100763.34;;;9.06;98.21
71974;BME280;59840;52.122;5.404;2022-12-24T01:18:43;100767.97;;;8.99;98.23
71974;BME280;59840;52.122;5.404;2022-12-24T01:21:09;100772.31;;;8.93;98.42
71974;BME280;59840;52.122;5.404;2022-12-24T01:23:36;100777.25;;;8.90;97.91
71974;BME280;59840;52.122;5.404;2022-12-24T01:26:04;100772.94;;;8.84;98.77
71974;BME280;59840;52.122;5.404;2022-12-24T01:28:32;100782.88;;;8.82;98.97
71974;BME280;59840;52.122;5.404;2022-12-24T01:30:59;100789.19;;;8.81;99.37
71974;BME280;59840;52.122;5.404;2022-12-24T01:33:29;100788.59;;;8.79;98.98
71974;BME280;59840;52.122;5.404;2022-12-24T01:35:55;100785.88;;;8.73;99.33
71974;BME280;59840;52.122;5.404;2022-12-24T01:38:22;100791.03;;;8.68;98.75
71974;BME280;59840;52.122;5.404;2022-12-24T01:40:48;100788.78;;;8.60;99.19
71974;BME280;59840;52.122;5.404;2022-12-24T01:43:33;100789.03;;;8.47;99.55
71974;BME280;59840;52.122;5.404;2022-12-24T01:46:02;100787.78;;;8.38;99.48
71974;BME280;59840;52.122;5.404;2022-12-24T01:48:43;100788.47;;;8.33;99.85
71974;BME280;59840;52.122;5.404;2022-12-24T01:53:51;100797.81;;;8.18;100.00
71974;BME280;59840;52.122;5.404;2022-12-24T01:56:20;100808.22;;;8.13;100.00
71974;BME280;59840;52.122;5.404;2022-12-24T01:58:51;100811.19;;;8.04;100.00
71974;BME280;59840;52.122;5.404;2022-12-24T02:01:20;100819.53;;;8.01;100.00
71974;BME280;59840;52.122;5.404;2022-12-24T02:03:47;100822.59;;;7.98;100.00
71974;BME280;59840;52.122;5.404;2022-12-24T02:06:15;100832.00;;;7.94;100.00
71974;BME280;59840;52.122;5.404;2022-12-24T02:08:43;100827.84;;;7.87;100.00
71974;BME280;59840;52.122;5.404;2022-12-24T02:11:14;100826.72;;;7.83;100.00
71974;BME280;59840;52.122;5.404;2022-12-24T02:13:44;100835.25;;;7.78;100.00
71974;BME280;59840;52.122;5.404;2022-12-24T02:30:19;100858.50;;;7.51;100.00
71974;BME280;59840;52.122;5.404;2022-12-24T02:35:36;100861.41;;;7.43;100.00
71974;BME280;59840;52.122;5.404;2022-12-24T02:38:26;100862.88;;;7.39;100.00
71974;BME280;59840;52.122;5.404;2022-12-24T02:40:59;100866.97;;;7.35;100.00
71974;BME280;59840;52.122;5.404;2022-12-24T02:43:38;100868.22;;;7.32;100.00
71974;BME280;59840;52.122;5.404;2022-12-24T02:46:11;100865.81;;;7.31;100.00
71974;BME280;59840;52.122;5.404;2022-12-24T02:48:40;100860.78;;;7.29;100.00
71974;BME280;59840;52.122;5.404;2022-12-24T02:51:09;100865.69;;;7.26;100.00
71974;BME280;59840;52.122;5.404;2022-12-24T02:53:36;100870.59;;;7.22;100.00
71974;BME280;59840;52.122;5.404;2022-12-24T03:07:37;100888.06;;;7.10;100.00
71974;BME280;59840;52.122;5.404;2022-12-24T03:10:26;100892.16;;;7.06;100.00
71974;BME280;59840;52.122;5.404;2022-12-24T03:12:58;100896.25;;;7.02;100.00
71974;BME280;59840;52.122;5.404;2022-12-24T03:15:26;100894.06;;;6.99;100.00
71974;BME280;59840;52.122;5.404;2022-12-24T03:17:57;100887.19;;;6.98;100.00
71974;BME280;59840;52.122;5.404;2022-12-24T03:20:31;100889.38;;;7.01;100.00
71974;BME280;59840;52.122;5.404;2022-12-24T03:22:59;100884.13;;;7.01;100.00
71974;BME280;59840;52.122;5.404;2022-12-24T03:25:26;100890.78;;;7.03;100.00
71974;BME280;59840;52.122;5.404;2022-12-24T03:27:55;100898.88;;;7.02;100.00
71974;BME280;59840;52.122;5.404;2022-12-24T03:30:22;100905.50;;;7.04;100.00
71974;BME280;59840;52.122;5.404;2022-12-24T03:32:50;100900.03;;;7.06;100.00
71974;BME280;59840;52.122;5.404;2022-12-24T03:35:16;100900.63;;;7.08;100.00
71974;BME280;59840;52.122;5.404;2022-12-24T03:37:43;100910.69;;;7.11;100.00
71974;BME280;59840;52.122;5.404;2022-12-24T03:40:10;100902.94;;;7.16;100.00
71974;BME280;59840;52.122;5.404;2022-12-24T03:42:37;100912.22;;;7.19;100.00
71974;BME280;59840;52.122;5.404;2022-12-24T03:45:04;100907.31;;;7.22;100.00
71974;BME280;59840;52.122;5.404;2022-12-24T03:47:31;100917.81;;;7.22;100.00
71974;BME280;59840;52.122;5.404;2022-12-24T03:49:57;100911.56;;;7.23;100.00
71974;BME280;59840;52.122;5.404;2022-12-24T03:52:24;100909.19;;;7.33;100.00
71974;BME280;59840;52.122;5.404;2022-12-24T03:54:50;100906.25;;;7.42;100.00
71974;BME280;59840;52.122;5.404;2022-12-24T03:57:17;100913.84;;;7.50;100.00
71974;BME280;59840;52.122;5.404;2022-12-24T03:59:43;100916.59;;;7.55;100.00
71974;BME280;59840;52.122;5.404;2022-12-24T04:02:10;100917.88;;;7.64;100.00
71974;BME280;59840;52.122;5.404;2022-12-24T04:04:36;100908.09;;;7.71;100.00
71974;BME280;59840;52.122;5.404;2022-12-24T04:07:04;100926.03;;;7.74;100.00
71974;BME280;59840;52.122;5.404;2022-12-24T04:09:31;100935.88;;;7.79;100.00
71974;BME280;59840;52.122;5.404;2022-12-24T04:11:58;100925.50;;;7.84;100.00
71974;BME280;59840;52.122;5.404;2022-12-24T04:14:24;100928.03;;;7.90;100.00
71974;BME280;59840;52.122;5.404;2022-12-24T04:16:51;100923.38;;;7.92;100.00
71974;BME280;59840;52.122;5.404;2022-12-24T04:19:17;100926.56;;;7.94;100.00
71974;BME280;59840;52.122;5.404;2022-12-24T04:21:44;100926.66;;;7.99;100.00
71974;BME280;59840;52.122;5.404;2022-12-24T04:24:10;100927.25;;;8.01;100.00
71974;BME280;59840;52.122;5.404;2022-12-24T04:26:37;100931.25;;;8.04;100.00
71974;BME280;59840;52.122;5.404;2022-12-24T04:29:04;100934.25;;;8.07;100.00
71974;BME280;59840;52.122;5.404;2022-12-24T04:31:30;100940.06;;;8.10;100.00
71974;BME280;59840;52.122;5.404;2022-12-24T04:33:57;100946.50;;;8.14;100.00
71974;BME280;59840;52.122;5.404;2022-12-24T04:36:23;100937.56;;;8.15;100.00
71974;BME280;59840;52.122;5.404;2022-12-24T04:38:50;100939.19;;;8.16;100.00
71974;BME280;59840;52.122;5.404;2022-12-24T04:41:19;100947.88;;;8.16;100.00
71974;BME280;59840;52.122;5.404;2022-12-24T04:43:49;100952.31;;;8.16;100.00
71974;BME280;59840;52.122;5.404;2022-12-24T04:46:18;100957.34;;;8.17;100.00
71974;BME280;59840;52.122;5.404;2022-12-24T04:48:47;100954.72;;;8.17;100.00
71974;BME280;59840;52.122;5.404;2022-12-24T04:51:15;100946.84;;;8.17;100.00
71974;BME280;59840;52.122;5.404;2022-12-24T04:53:43;100947.06;;;8.16;100.00
71974;BME280;59840;52.122;5.404;2022-12-24T04:56:18;100951.28;;;8.17;100.00
71974;BME280;59840;52.122;5.404;2022-12-24T04:58:45;100951.28;;;8.17;100.00
71974;BME280;59840;52.122;5.404;2022-12-24T05:01:15;100967.06;;;8.17;100.00
71974;BME280;59840;52.122;5.404;2022-12-24T05:03:42;100967.06;;;8.17;100.00
71974;BME280;59840;52.122;5.404;2022-12-24T05:06:11;100963.19;;;8.19;100.00
71974;BME280;59840;52.122;5.404;2022-12-24T05:08:38;100961.72;;;8.23;100.00
71974;BME280;59840;52.122;5.404;2022-12-24T05:11:06;100963.09;;;8.26;100.00
71974;BME280;59840;52.122;5.404;2022-12-24T05:13:33;100964.47;;;8.28;100.00
71974;BME280;59840;52.122;5.404;2022-12-24T05:16:11;100956.13;;;8.31;100.00
71974;BME280;59840;52.122;5.404;2022-12-24T05:18:38;100951.47;;;8.33;100.00
71974;BME280;59840;52.122;5.404;2022-12-24T05:21:23;100957.53;;;8.34;100.00
71974;BME280;59840;52.122;5.404;2022-12-24T05:23:51;100956.72;;;8.33;100.00
71974;BME280;59840;52.122;5.404;2022-12-24T05:26:40;100964.59;;;8.33;100.00
71974;BME280;59840;52.122;5.404;2022-12-24T05:29:09;100965.97;;;8.36;100.00
71974;BME280;59840;52.122;5.404;2022-12-24T05:31:40;100967.59;;;8.37;100.00
71974;BME280;59840;52.122;5.404;2022-12-24T05:34:07;100967.34;;;8.38;100.00
71974;BME280;59840;52.122;5.404;2022-12-24T05:36:35;100965.09;;;8.42;100.00
71974;BME280;59840;52.122;5.404;2022-12-24T05:39:01;100970.91;;;8.44;100.00
71974;BME280;59840;52.122;5.404;2022-12-24T05:41:28;100978.34;;;8.47;100.00
71974;BME280;59840;52.122;5.404;2022-12-24T05:43:55;100979.97;;;8.48;100.00
71974;BME280;59840;52.122;5.404;2022-12-24T05:46:23;100974.47;;;8.50;100.00
71974;BME280;59840;52.122;5.404;2022-12-24T05:48:51;100969.78;;;8.52;100.00
71974;BME280;59840;52.122;5.404;2022-12-24T05:51:20;100973.78;;;8.54;100.00
71974;BME280;59840;52.122;5.404;2022-12-24T05:53:49;100974.59;;;8.55;100.00
71974;BME280;59840;52.122;5.404;2022-12-24T05:56:19;100976.19;;;8.56;100.00
71974;BME280;59840;52.122;5.404;2022-12-24T05:58:47;100981.00;;;8.59;100.00
71974;BME280;59840;52.122;5.404;2022-12-24T06:01:15;100974.72;;;8.60;100.00
71974;BME280;59840;52.122;5.404;2022-12-24T06:03:41;100987.41;;;8.63;100.00
71974;BME280;59840;52.122;5.404;2022-12-24T06:06:10;100986.97;;;8.66;100.00
71974;BME280;59840;52.122;5.404;2022-12-24T06:08:39;100996.69;;;8.65;100.00
71974;BME280;59840;52.122;5.404;2022-12-24T06:11:09;100992.47;;;8.64;100.00
71974;BME280;59840;52.122;5.404;2022-12-24T06:13:38;100980.91;;;8.65;100.00
71974;BME280;59840;52.122;5.404;2022-12-24T06:16:06;100994.28;;;8.64;100.00
71974;BME280;59840;52.122;5.404;2022-12-24T06:18:34;100997.13;;;8.62;100.00
71974;BME280;59840;52.122;5.404;2022-12-24T06:21:01;101004.00;;;8.63;100.00
71974;BME280;59840;52.122;5.404;2022-12-24T06:23:29;101009.59;;;8.67;100.00
71974;BME280;59840;52.122;5.404;2022-12-24T06:25:58;101012.78;;;8.69;100.00
71974;BME280;59840;52.122;5.404;2022-12-24T06:28:31;101003.88;;;8.70;100.00
71974;BME280;59840;52.122;5.404;2022-12-24T06:30:58;101007.31;;;8.70;100.00
71974;BME280;59840;52.122;5.404;2022-12-24T06:33:30;101012.56;;;8.70;100.00
71974;BME280;59840;52.122;5.404;2022-12-24T06:35:56;101023.78;;;8.66;100.00
71974;BME280;59840;52.122;5.404;2022-12-24T06:38:23;101020.09;;;8.67;100.00
71974;BME280;59840;52.122;5.404;2022-12-24T06:40:50;101010.38;;;8.67;100.00
71974;BME280;59840;52.122;5.404;2022-12-24T06:43:16;101016.22;;;8.69;100.00
71974;BME280;59840;52.122;5.404;2022-12-24T06:45:45;101021.47;;;8.69;100.00
71974;BME280;59840;52.122;5.404;2022-12-24T06:48:13;101026.53;;;8.71;100.00
71974;BME280;59840;52.122;5.404;2022-12-24T06:50:40;101026.28;;;8.72;100.00
71974;BME280;59840;52.122;5.404;2022-12-24T06:53:07;101032.13;;;8.74;100.00
71974;BME280;59840;52.122;5.404;2022-12-24T06:55:33;101039.00;;;8.76;100.00
71974;BME280;59840;52.122;5.404;2022-12-24T06:58:00;101031.09;;;8.76;100.00
71974;BME280;59840;52.122;5.404;2022-12-24T07:00:27;101030.06;;;8.77;100.00
71974;BME280;59840;52.122;5.404;2022-12-24T07:02:53;101024.59;;;8.78;100.00
71974;BME280;59840;52.122;5.404;2022-12-24T07:05:20;101033.28;;;8.79;100.00
71974;BME280;59840;52.122;5.404;2022-12-24T07:07:47;101028.25;;;8.77;100.00
71974;BME280;59840;52.122;5.404;2022-12-24T07:10:18;101035.34;;;8.77;100.00
71974;BME280;59840;52.122;5.404;2022-12-24T07:12:45;101039.00;;;8.76;100.00
71974;BME280;59840;52.122;5.404;2022-12-24T07:15:12;101047.91;;;8.74;100.00
71974;BME280;59840;52.122;5.404;2022-12-24T07:17:39;101049.97;;;8.72;100.00
71974;BME280;59840;52.122;5.404;2022-12-24T07:20:08;101046.75;;;8.70;100.00
71974;BME280;59840;52.122;5.404;2022-12-24T07:22:35;101042.75;;;8.68;100.00
71974;BME280;59840;52.122;5.404;2022-12-24T07:25:02;101050.56;;;8.63;100.00
71974;BME280;59840;52.122;5.404;2022-12-24T07:27:29;101060.13;;;8.57;100.00
71974;BME280;59840;52.122;5.404;2022-12-24T07:29:56;101067.44;;;8.55;100.00
71974;BME280;59840;52.122;5.404;2022-12-24T07:32:22;101073.28;;;8.57;100.00
71974;BME280;59840;52.122;5.404;2022-12-24T07:34:49;101084.16;;;8.61;100.00
71974;BME280;59840;52.122;5.404;2022-12-24T07:37:15;101084.53;;;8.64;100.00
71974;BME280;59840;52.122;5.404;2022-12-24T07:39:42;101092.72;;;8.68;100.00
71974;BME280;59840;52.122;5.404;2022-12-24T07:42:09;101099.59;;;8.69;100.00
71974;BME280;59840;52.122;5.404;2022-12-24T07:44:35;101106.81;;;8.73;100.00
71974;BME280;59840;52.122;5.404;2022-12-24T07:47:02;101105.56;;;8.76;100.00
71974;BME280;59840;52.122;5.404;2022-12-24T07:49:29;101113.25;;;8.78;100.00
71974;BME280;59840;52.122;5.404;2022-12-24T07:51:55;101116.69;;;8.78;100.00
71974;BME280;59840;52.122;5.404;2022-12-24T07:54:22;101120.91;;;8.79;100.00
71974;BME280;59840;52.122;5.404;2022-12-24T07:56:49;101128.00;;;8.79;100.00
71974;BME280;59840;52.122;5.404;2022-12-24T07:59:15;101141.72;;;8.81;100.00
71974;BME280;59840;52.122;5.404;2022-12-24T08:01:42;101139.09;;;8.81;100.00
71974;BME280;59840;52.122;5.404;2022-12-24T08:04:09;101149.41;;;8.82;100.00
71974;BME280;59840;52.122;5.404;2022-12-24T08:06:35;101146.56;;;8.84;100.00
71974;BME280;59840;52.122;5.404;2022-12-24T08:09:02;101148.38;;;8.83;100.00
71974;BME280;59840;52.122;5.404;2022-12-24T08:11:29;101154.44;;;8.84;100.00
71974;BME280;59840;52.122;5.404;2022-12-24T08:13:56;101159.72;;;8.84;100.00
71974;BME280;59840;52.122;5.404;2022-12-24T08:16:22;101157.66;;;8.86;100.00
71974;BME280;59840;52.122;5.404;2022-12-24T08:18:49;101168.19;;;8.86;100.00
71974;BME280;59840;52.122;5.404;2022-12-24T08:21:16;101162.91;;;8.86;100.00
71974;BME280;59840;52.122;5.404;2022-12-24T08:23:42;101166.13;;;8.88;100.00
71974;BME280;59840;52.122;5.404;2022-12-24T08:26:09;101183.53;;;8.89;100.00
71974;BME280;59840;52.122;5.404;2022-12-24T08:28:36;101173.81;;;8.89;100.00
71974;BME280;59840;52.122;5.404;2022-12-24T08:31:04;101169.34;;;8.90;100.00
71974;BME280;59840;52.122;5.404;2022-12-24T08:33:31;101181.03;;;8.94;100.00
71974;BME280;59840;52.122;5.404;2022-12-24T08:36:00;101179.06;;;9.01;100.00
71974;BME280;59840;52.122;5.404;2022-12-24T08:38:26;101175.91;;;9.11;100.00
71974;BME280;59840;52.122;5.404;2022-12-24T08:40:54;101180.50;;;9.15;100.00
71974;BME280;59840;52.122;5.404;2022-12-24T08:43:21;101190.56;;;9.18;100.00
71974;BME280;59840;52.122;5.404;2022-12-24T08:45:48;101194.81;;;9.19;100.00
71974;BME280;59840;52.122;5.404;2022-12-24T08:48:15;101201.47;;;9.22;100.00
71974;BME280;59840;52.122;5.404;2022-12-24T08:50:42;101204.91;;;9.22;100.00
71974;BME280;59840;52.122;5.404;2022-12-24T08:53:09;101202.84;;;9.24;100.00
71974;BME280;59840;52.122;5.404;2022-12-24T08:55:36;101207.31;;;9.24;100.00
71974;BME280;59840;52.122;5.404;2022-12-24T08:58:03;101211.31;;;9.26;100.00
71974;BME280;59840;52.122;5.404;2022-12-24T09:00:29;101216.13;;;9.29;100.00
71974;BME280;59840;52.122;5.404;2022-12-24T09:02:56;101218.31;;;9.32;100.00
71974;BME280;59840;52.122;5.404;2022-12-24T09:05:23;101221.53;;;9.34;100.00
71974;BME280;59840;52.122;5.404;2022-12-24T09:07:51;101221.19;;;9.43;100.00
71974;BME280;59840;52.122;5.404;2022-12-24T09:10:18;101224.97;;;9.47;100.00
71974;BME280;59840;52.122;5.404;2022-12-24T09:12:44;101244.78;;;9.49;100.00
71974;BME280;59840;52.122;5.404;2022-12-24T09:15:11;101241.56;;;9.47;100.00
71974;BME280;59840;52.122;5.404;2022-12-24T09:17:40;101246.03;;;9.47;100.00
71974;BME280;59840;52.122;5.404;2022-12-24T09:20:07;101254.16;;;9.45;100.00
71974;BME280;59840;52.122;5.404;2022-12-24T09:22:35;101246.84;;;9.47;100.00
71974;BME280;59840;52.122;5.404;2022-12-24T09:25:02;101249.25;;;9.49;100.00
71974;BME280;59840;52.122;5.404;2022-12-24T09:27:30;101264.59;;;9.52;100.00
71974;BME280;59840;52.122;5.404;2022-12-24T09:29:57;101257.84;;;9.56;100.00
71974;BME280;59840;52.122;5.404;2022-12-24T09:32:23;101262.44;;;9.60;100.00
71974;BME280;59840;52.122;5.404;2022-12-24T09:34:50;101270.94;;;9.62;100.00
71974;BME280;59840;52.122;5.404;2022-12-24T09:37:17;101269.69;;;9.65;100.00
71974;BME280;59840;52.122;5.404;2022-12-24T09:39:43;101281.38;;;9.69;100.00
71974;BME280;59840;52.122;5.404;2022-12-24T09:42:31;101275.97;;;9.75;100.00
71974;BME280;59840;52.122;5.404;2022-12-24T09:45:16;101291.69;;;9.82;100.00
71974;BME280;59840;52.122;5.404;2022-12-24T09:48:00;101302.22;;;9.82;100.00
71974;BME280;59840;52.122;5.404;2022-12-24T09:50:50;101307.38;;;9.77;100.00
71974;BME280;59840;52.122;5.404;2022-12-24T09:53:23;101304.38;;;9.73;100.00
71974;BME280;59840;52.122;5.404;2022-12-24T09:55:55;101305.41;;;9.72;100.00
71974;BME280;59840;52.122;5.404;2022-12-24T09:58:42;101297.19;;;9.69;100.00
71974;BME280;59840;52.122;5.404;2022-12-24T10:01:12;101299.91;;;9.74;100.00
71974;BME280;59840;52.122;5.404;2022-12-24T10:03:40;101303.81;;;9.83;100.00
71974;BME280;59840;52.122;5.404;2022-12-24T10:06:14;101302.91;;;9.89;100.00
71974;BME280;59840;52.122;5.404;2022-12-24T10:08:49;101300.75;;;9.86;100.00
71974;BME280;59840;52.122;5.404;2022-12-24T10:14:17;101301.88;;;9.79;100.00
71974;BME280;59840;52.122;5.404;2022-12-24T10:19:26;101313.91;;;10.09;100.00
71974;BME280;59840;52.122;5.404;2022-12-24T10:24:31;101307.53;;;10.29;99.28
71974;BME280;59840;52.122;5.404;2022-12-24T10:27:12;101311.44;;;10.38;99.17
71974;BME280;59840;52.122;5.404;2022-12-24T10:29:49;101306.03;;;10.45;98.20
71974;BME280;59840;52.122;5.404;2022-12-24T10:32:27;101291.22;;;10.55;98.26
71974;BME280;59840;52.122;5.404;2022-12-24T10:37:28;101306.91;;;10.73;96.78
71974;BME280;59840;52.122;5.404;2022-12-24T10:39:57;101304.56;;;10.77;96.63
71974;BME280;59840;52.122;5.404;2022-12-24T10:42:38;101307.94;;;10.72;96.42
71974;BME280;59840;52.122;5.404;2022-12-24T10:45:20;101311.84;;;10.70;95.82
71974;BME280;59840;52.122;5.404;2022-12-24T10:47:53;101315.75;;;10.67;95.45
71974;BME280;59840;52.122;5.404;2022-12-24T10:50:30;101317.59;;;10.67;96.24
71974;BME280;59840;52.122;5.404;2022-12-24T10:53:22;101309.66;;;10.67;96.01
71974;BME280;59840;52.122;5.404;2022-12-24T10:56:00;101301.66;;;10.62;96.08
71974;BME280;59840;52.122;5.404;2022-12-24T10:58:27;101309.00;;;10.60;95.83
71974;BME280;59840;52.122;5.404;2022-12-24T11:00:54;101314.50;;;10.58;96.00
71974;BME280;59840;52.122;5.404;2022-12-24T11:08:39;101326.78;;;10.64;96.38
71974;BME280;59840;52.122;5.404;2022-12-24T11:13:38;101320.91;;;10.62;96.02
71974;BME280;59840;52.122;5.404;2022-12-24T11:16:14;101326.88;;;10.58;95.72
71974;BME280;59840;52.122;5.404;2022-12-24T11:18:45;101316.34;;;10.46;95.92
71974;BME280;59840;52.122;5.404;2022-12-24T11:23:52;101314.78;;;10.33;96.30
71974;BME280;59840;52.122;5.404;2022-12-24T11:26:25;101318.78;;;10.36;95.66
71974;BME280;59840;52.122;5.404;2022-12-24T11:29:26;101322.19;;;10.48;96.05
71974;BME280;59840;52.122;5.404;2022-12-24T11:32:16;101322.31;;;10.41;95.92
71974;BME280;59840;52.122;5.404;2022-12-24T11:34:44;101330.94;;;10.37;95.49
71974;BME280;59840;52.122;5.404;2022-12-24T11:37:20;101326.00;;;10.29;95.38
71974;BME280;59840;52.122;5.404;2022-12-24T11:39:57;101331.97;;;10.24;95.32
71974;BME280;59840;52.122;5.404;2022-12-24T11:44:53;101332.66;;;10.20;94.50
71974;BME280;59840;52.122;5.404;2022-12-24T11:47:40;101333.66;;;10.19;94.47
71974;BME280;59840;52.122;5.404;2022-12-24T11:50:34;101335.72;;;10.17;94.05
71974;BME280;59840;52.122;5.404;2022-12-24T11:53:17;101335.28;;;10.20;94.19
71974;BME280;59840;52.122;5.404;2022-12-24T11:55:55;101339.06;;;10.24;93.26
71974;BME280;59840;52.122;5.404;2022-12-24T11:58:49;101337.00;;;10.26;92.99
71974;BME280;59840;52.122;5.404;2022-12-24T12:01:23;101345.16;;;10.36;92.03
71974;BME280;59840;52.122;5.404;2022-12-24T12:03:57;101342.59;;;10.41;91.67
71974;BME280;59840;52.122;5.404;2022-12-24T12:06:35;101346.06;;;10.53;91.87
71974;BME280;59840;52.122;5.404;2022-12-24T12:09:12;101341.47;;;10.60;90.47
71974;BME280;59840;52.122;5.404;2022-12-24T12:11:41;101348.91;;;10.63;89.26
71974;BME280;59840;52.122;5.404;2022-12-24T12:14:33;101355.91;;;10.58;90.55
71974;BME280;59840;52.122;5.404;2022-12-24T12:17:13;101352.59;;;10.51;89.79
71974;BME280;59840;52.122;5.404;2022-12-24T12:20:17;101367.28;;;10.47;89.20
71974;BME280;59840;52.122;5.404;2022-12-24T12:25:49;101378.66;;;10.35;88.89
71974;BME280;59840;52.122;5.404;2022-12-24T12:31:18;101383.34;;;10.33;89.05
71974;BME280;59840;52.122;5.404;2022-12-24T12:33:47;101389.53;;;10.27;88.81
71974;BME280;59840;52.122;5.404;2022-12-24T12:36:19;101375.78;;;10.25;89.03
71974;BME280;59840;52.122;5.404;2022-12-24T12:38:46;101376.81;;;10.24;88.63
71974;BME280;59840;52.122;5.404;2022-12-24T12:59:43;101399.28;;;10.50;89.60
71974;BME280;59840;52.122;5.404;2022-12-24T13:21:29;101408.09;;;10.44;89.04
71974;BME280;59840;52.122;5.404;2022-12-24T13:24:18;101406.84;;;10.58;89.36
71974;BME280;59840;52.122;5.404;2022-12-24T13:27:05;101408.47;;;10.59;89.10
71974;BME280;59840;52.122;5.404;2022-12-24T13:34:47;101415.69;;;10.64;87.59
71974;BME280;59840;52.122;5.404;2022-12-24T13:37:30;101423.97;;;10.67;87.57
71974;BME280;59840;52.122;5.404;2022-12-24T13:53:05;101451.28;;;10.73;86.58
71974;BME280;59840;52.122;5.404;2022-12-24T13:55:33;101447.59;;;10.62;87.41
71974;BME280;59840;52.122;5.404;2022-12-24T13:58:03;101449.53;;;10.55;87.54
71974;BME280;59840;52.122;5.404;2022-12-24T14:00:52;101453.19;;;10.54;88.32
71974;BME280;59840;52.122;5.404;2022-12-24T14:06:00;101465.38;;;10.55;88.31
71974;BME280;59840;52.122;5.404;2022-12-24T14:08:34;101460.78;;;10.51;87.73
71974;BME280;59840;52.122;5.404;2022-12-24T14:11:13;101460.19;;;10.49;88.38
71974;BME280;59840;52.122;5.404;2022-12-24T14:16:10;101467.53;;;10.47;88.36
71974;BME280;59840;52.122;5.404;2022-12-24T14:18:39;101470.41;;;10.45;88.85
71974;BME280;59840;52.122;5.404;2022-12-24T14:21:15;101480.72;;;10.47;88.85
71974;BME280;59840;52.122;5.404;2022-12-24T14:23:52;101473.03;;;10.45;88.47
71974;BME280;59840;52.122;5.404;2022-12-24T14:26:23;101473.03;;;10.45;89.33
71974;BME280;59840;52.122;5.404;2022-12-24T14:28:59;101476.81;;;10.49;89.13
71974;BME280;59840;52.122;5.404;2022-12-24T14:31:27;101471.56;;;10.49;88.95
71974;BME280;59840;52.122;5.404;2022-12-24T14:34:08;101478.09;;;10.47;88.94
71974;BME280;59840;52.122;5.404;2022-12-24T14:36:37;101475.91;;;10.44;89.39
71974;BME280;59840;52.122;5.404;2022-12-24T14:39:10;101484.53;;;10.39;88.77
71974;BME280;59840;52.122;5.404;2022-12-24T14:41:53;101479.69;;;10.36;88.75
71974;BME280;59840;52.122;5.404;2022-12-24T14:44:28;101491.28;;;10.35;89.35
71974;BME280;59840;52.122;5.404;2022-12-24T14:47:14;101493.34;;;10.33;89.39
71974;BME280;59840;52.122;5.404;2022-12-24T14:52:37;101501.22;;;10.21;89.71
71974;BME280;59840;52.122;5.404;2022-12-24T14:58:32;101506.31;;;10.04;89.22
71974;BME280;59840;52.122;5.404;2022-12-24T15:01:17;101509.25;;;9.96;89.68
71974;BME280;59840;52.122;5.404;2022-12-24T15:03:45;101511.59;;;9.86;90.07
71974;BME280;59840;52.122;5.404;2022-12-24T15:06:24;101509.72;;;9.75;90.52
71974;BME280;59840;52.122;5.404;2022-12-24T15:08:51;101514.72;;;9.65;91.75
71974;BME280;59840;52.122;5.404;2022-12-24T15:11:20;101515.44;;;9.54;91.51
71974;BME280;59840;52.122;5.404;2022-12-24T15:13:53;101525.69;;;9.44;92.09
71974;BME280;59840;52.122;5.404;2022-12-24T15:16:32;101526.00;;;9.35;92.64